sensor_id;sensor_type;location;lat;lon;timestamp;temperature;humidity
64226;DHT22;50545;56.064;26.178;2023-03-14T00:01:49;5.00;99.90
64226;DHT22;50545;56.064;26.178;2023-03-14T00:04:16;5.00;99.90
64226;DHT22;50545;56.064;26.178;2023-03-14T00:06:43;5.10;99.90
64226;DHT22;50545;56.064;26.178;2023-03-14T00:09:11;5.10;99.90
64226;DHT22;50545;56.064;26.178;2023-03-14T00:11:41;5.20;99.90
64226;DHT22;50545;56.064;26.178;2023-03-14T00:14:08;5.30;99.90
64226;DHT22;50545;56.064;26.178;2023-03-14T00:16:35;5.30;99.90
64226;DHT22;50545;56.064;26.178;2023-03-14T00:19:03;5.30;99.90
64226;DHT22;50545;56.064;26.178;2023-03-14T00:21:30;5.30;99.90
64226;DHT22;50545;56.064;26.178;2023-03-14T00:23:57;5.20;99.90
64226;DHT22;50545;56.064;26.178;2023-03-14T00:26:24;5.20;99.90
64226;DHT22;50545;56.064;26.178;2023-03-14T00:28:53;5.30;99.90
64226;DHT22;50545;56.064;26.178;2023-03-14T00:31:20;5.30;99.90
64226;DHT22;50545;56.064;26.178;2023-03-14T00:33:47;5.40;99.90
64226;DHT22;50545;56.064;26.178;2023-03-14T00:36:16;5.30;99.90
64226;DHT22;50545;56.064;26.178;2023-03-14T00:38:45;5.30;99.90
64226;DHT22;50545;56.064;26.178;2023-03-14T00:41:16;5.30;99.90
64226;DHT22;50545;56.064;26.178;2023-03-14T00:43:43;5.30;99.90
64226;DHT22;50545;56.064;26.178;2023-03-14T00:46:11;5.30;99.90
64226;DHT22;50545;56.064;26.178;2023-03-14T00:48:39;5.40;99.90
64226;DHT22;50545;56.064;26.178;2023-03-14T00:51:08;5.40;99.90
64226;DHT22;50545;56.064;26.178;2023-03-14T00:53:37;5.40;99.90
64226;DHT22;50545;56.064;26.178;2023-03-14T00:56:07;5.40;99.90
64226;DHT22;50545;56.064;26.178;2023-03-14T00:58:35;5.50;99.90
64226;DHT22;50545;56.064;26.178;2023-03-14T01:01:20;5.50;99.90
64226;DHT22;50545;56.064;26.178;2023-03-14T01:03:51;5.60;99.90
64226;DHT22;50545;56.064;26.178;2023-03-14T01:06:22;5.60;99.90
64226;DHT22;50545;56.064;26.178;2023-03-14T01:08:50;5.60;99.90
64226;DHT22;50545;56.064;26.178;2023-03-14T01:11:23;5.60;99.90
64226;DHT22;50545;56.064;26.178;2023-03-14T01:13:51;5.70;99.90
64226;DHT22;50545;56.064;26.178;2023-03-14T01:16:20;5.70;99.90
64226;DHT22;50545;56.064;26.178;2023-03-14T01:18:48;5.70;99.90
64226;DHT22;50545;56.064;26.178;2023-03-14T01:23:43;5.80;99.90
64226;DHT22;50545;56.064;26.178;2023-03-14T01:26:13;5.80;99.90
64226;DHT22;50545;56.064;26.178;2023-03-14T01:28:40;5.80;99.90
64226;DHT22;50545;56.064;26.178;2023-03-14T01:31:09;5.80;99.90
64226;DHT22;50545;56.064;26.178;2023-03-14T01:33:37;5.80;99.90
64226;DHT22;50545;56.064;26.178;2023-03-14T01:36:06;5.80;99.90
64226;DHT22;50545;56.064;26.178;2023-03-14T01:38:35;5.80;99.90
64226;DHT22;50545;56.064;26.178;2023-03-14T01:41:03;5.80;99.90
64226;DHT22;50545;56.064;26.178;2023-03-14T01:43:31;5.80;99.90
64226;DHT22;50545;56.064;26.178;2023-03-14T01:51:05;5.90;99.90
64226;DHT22;50545;56.064;26.178;2023-03-14T01:53:35;6.00;99.90
64226;DHT22;50545;56.064;26.178;2023-03-14T01:56:02;6.00;99.90
64226;DHT22;50545;56.064;26.178;2023-03-14T01:58:32;6.00;99.90
64226;DHT22;50545;56.064;26.178;2023-03-14T02:01:02;6.00;99.90
64226;DHT22;50545;56.064;26.178;2023-03-14T02:03:31;6.00;99.90
64226;DHT22;50545;56.064;26.178;2023-03-14T02:06:06;6.00;99.90
64226;DHT22;50545;56.064;26.178;2023-03-14T02:08:35;5.90;99.90
64226;DHT22;50545;56.064;26.178;2023-03-14T02:11:05;6.00;99.90
64226;DHT22;50545;56.064;26.178;2023-03-14T02:13:34;6.00;99.90
64226;DHT22;50545;56.064;26.178;2023-03-14T02:16:01;6.00;99.90
64226;DHT22;50545;56.064;26.178;2023-03-14T02:18:29;6.00;99.90
64226;DHT22;50545;56.064;26.178;2023-03-14T02:27:13;6.10;99.90
64226;DHT22;50545;56.064;26.178;2023-03-14T02:32:23;6.10;99.90
64226;DHT22;50545;56.064;26.178;2023-03-14T02:34:55;6.10;99.90
64226;DHT22;50545;56.064;26.178;2023-03-14T02:37:27;6.10;99.90
64226;DHT22;50545;56.064;26.178;2023-03-14T02:39:57;6.10;99.90
64226;DHT22;50545;56.064;26.178;2023-03-14T02:42:24;6.20;99.90
64226;DHT22;50545;56.064;26.178;2023-03-14T02:47:44;6.10;99.90
64226;DHT22;50545;56.064;26.178;2023-03-14T02:50:17;6.10;99.90
64226;DHT22;50545;56.064;26.178;2023-03-14T02:52:45;6.10;99.90
64226;DHT22;50545;56.064;26.178;2023-03-14T02:55:12;6.10;99.90
64226;DHT22;50545;56.064;26.178;2023-03-14T02:57:39;6.20;99.90
64226;DHT22;50545;56.064;26.178;2023-03-14T03:00:07;6.20;99.90
64226;DHT22;50545;56.064;26.178;2023-03-14T03:02:35;6.20;99.90
64226;DHT22;50545;56.064;26.178;2023-03-14T03:05:02;6.10;99.90
64226;DHT22;50545;56.064;26.178;2023-03-14T03:07:29;6.10;99.90
64226;DHT22;50545;56.064;26.178;2023-03-14T03:09:56;6.10;99.90
64226;DHT22;50545;56.064;26.178;2023-03-14T03:12:25;6.10;99.90
64226;DHT22;50545;56.064;26.178;2023-03-14T03:14:52;6.10;99.90
64226;DHT22;50545;56.064;26.178;2023-03-14T03:17:19;6.20;99.90
64226;DHT22;50545;56.064;26.178;2023-03-14T03:19:46;6.20;99.90
64226;DHT22;50545;56.064;26.178;2023-03-14T03:22:14;6.20;99.90
64226;DHT22;50545;56.064;26.178;2023-03-14T03:24:41;6.10;99.90
64226;DHT22;50545;56.064;26.178;2023-03-14T03:27:08;6.10;99.90
64226;DHT22;50545;56.064;26.178;2023-03-14T03:29:35;6.20;99.90
64226;DHT22;50545;56.064;26.178;2023-03-14T03:32:03;6.20;99.90
64226;DHT22;50545;56.064;26.178;2023-03-14T03:34:30;6.10;99.90
64226;DHT22;50545;56.064;26.178;2023-03-14T03:36:57;6.10;99.90
64226;DHT22;50545;56.064;26.178;2023-03-14T03:39:24;6.10;99.90
64226;DHT22;50545;56.064;26.178;2023-03-14T03:41:52;6.00;99.90
64226;DHT22;50545;56.064;26.178;2023-03-14T03:44:19;6.10;99.90
64226;DHT22;50545;56.064;26.178;2023-03-14T03:46:46;6.20;99.90
64226;DHT22;50545;56.064;26.178;2023-03-14T03:49:13;6.10;99.90
64226;DHT22;50545;56.064;26.178;2023-03-14T03:51:40;6.10;99.90
64226;DHT22;50545;56.064;26.178;2023-03-14T03:54:08;6.00;99.90
64226;DHT22;50545;56.064;26.178;2023-03-14T03:56:35;6.00;99.90
64226;DHT22;50545;56.064;26.178;2023-03-14T03:59:02;6.10;99.90
64226;DHT22;50545;56.064;26.178;2023-03-14T04:01:29;6.10;99.90
64226;DHT22;50545;56.064;26.178;2023-03-14T04:03:56;6.00;99.90
64226;DHT22;50545;56.064;26.178;2023-03-14T04:06:24;6.10;99.90
64226;DHT22;50545;56.064;26.178;2023-03-14T04:08:51;6.10;99.90
64226;DHT22;50545;56.064;26.178;2023-03-14T04:11:20;6.00;99.90
64226;DHT22;50545;56.064;26.178;2023-03-14T04:13:47;6.10;99.90
64226;DHT22;50545;56.064;26.178;2023-03-14T04:16:17;6.10;99.90
64226;DHT22;50545;56.064;26.178;2023-03-14T04:18:45;6.10;99.90
64226;DHT22;50545;56.064;26.178;2023-03-14T04:21:12;6.10;99.90
64226;DHT22;50545;56.064;26.178;2023-03-14T04:23:40;6.10;99.90
64226;DHT22;50545;56.064;26.178;2023-03-14T04:26:07;6.10;99.90
64226;DHT22;50545;56.064;26.178;2023-03-14T04:28:34;6.10;99.90
64226;DHT22;50545;56.064;26.178;2023-03-14T04:31:12;6.10;99.90
64226;DHT22;50545;56.064;26.178;2023-03-14T04:33:39;6.10;99.90
64226;DHT22;50545;56.064;26.178;2023-03-14T04:36:09;6.10;99.90
64226;DHT22;50545;56.064;26.178;2023-03-14T04:38:36;6.10;99.90
64226;DHT22;50545;56.064;26.178;2023-03-14T04:41:04;6.10;99.90
64226;DHT22;50545;56.064;26.178;2023-03-14T04:43:31;6.10;99.90
64226;DHT22;50545;56.064;26.178;2023-03-14T04:45:59;6.10;99.90
64226;DHT22;50545;56.064;26.178;2023-03-14T04:48:26;6.10;99.90
64226;DHT22;50545;56.064;26.178;2023-03-14T04:50:54;6.10;99.90
64226;DHT22;50545;56.064;26.178;2023-03-14T04:53:22;6.10;99.90
64226;DHT22;50545;56.064;26.178;2023-03-14T04:55:50;6.10;99.90
64226;DHT22;50545;56.064;26.178;2023-03-14T04:58:18;6.10;99.90
64226;DHT22;50545;56.064;26.178;2023-03-14T05:00:46;6.10;99.90
64226;DHT22;50545;56.064;26.178;2023-03-14T05:03:17;6.10;99.90
64226;DHT22;50545;56.064;26.178;2023-03-14T05:05:46;6.20;99.90
64226;DHT22;50545;56.064;26.178;2023-03-14T05:08:13;6.20;99.90
64226;DHT22;50545;56.064;26.178;2023-03-14T05:10:40;6.20;99.90
64226;DHT22;50545;56.064;26.178;2023-03-14T05:13:07;6.20;99.90
64226;DHT22;50545;56.064;26.178;2023-03-14T05:15:34;6.20;99.90
64226;DHT22;50545;56.064;26.178;2023-03-14T05:18:02;6.20;99.90
64226;DHT22;50545;56.064;26.178;2023-03-14T05:20:30;6.20;99.90
64226;DHT22;50545;56.064;26.178;2023-03-14T05:22:57;6.20;99.90
64226;DHT22;50545;56.064;26.178;2023-03-14T05:25:24;6.20;99.90
64226;DHT22;50545;56.064;26.178;2023-03-14T05:27:54;6.20;99.90
64226;DHT22;50545;56.064;26.178;2023-03-14T05:30:22;6.20;99.90
64226;DHT22;50545;56.064;26.178;2023-03-14T05:32:49;6.30;99.90
64226;DHT22;50545;56.064;26.178;2023-03-14T05:35:17;6.30;99.90
64226;DHT22;50545;56.064;26.178;2023-03-14T05:37:44;6.30;99.90
64226;DHT22;50545;56.064;26.178;2023-03-14T05:40:12;6.30;99.90
64226;DHT22;50545;56.064;26.178;2023-03-14T05:42:39;6.30;99.90
64226;DHT22;50545;56.064;26.178;2023-03-14T05:45:06;6.20;99.90
64226;DHT22;50545;56.064;26.178;2023-03-14T05:47:34;6.20;99.90
64226;DHT22;50545;56.064;26.178;2023-03-14T05:50:01;6.20;99.90
64226;DHT22;50545;56.064;26.178;2023-03-14T05:52:28;6.20;99.90
64226;DHT22;50545;56.064;26.178;2023-03-14T05:54:55;6.20;99.90
64226;DHT22;50545;56.064;26.178;2023-03-14T05:57:22;6.30;99.90
64226;DHT22;50545;56.064;26.178;2023-03-14T05:59:49;6.30;99.90
64226;DHT22;50545;56.064;26.178;2023-03-14T06:02:17;6.30;99.90
64226;DHT22;50545;56.064;26.178;2023-03-14T06:04:44;6.30;99.90
64226;DHT22;50545;56.064;26.178;2023-03-14T06:07:11;6.30;99.90
64226;DHT22;50545;56.064;26.178;2023-03-14T06:09:38;6.30;99.90
64226;DHT22;50545;56.064;26.178;2023-03-14T06:12:06;6.40;99.90
64226;DHT22;50545;56.064;26.178;2023-03-14T06:14:34;6.40;99.90
64226;DHT22;50545;56.064;26.178;2023-03-14T06:17:01;6.40;99.90
64226;DHT22;50545;56.064;26.178;2023-03-14T06:19:28;6.40;99.90
64226;DHT22;50545;56.064;26.178;2023-03-14T06:21:55;6.40;99.90
64226;DHT22;50545;56.064;26.178;2023-03-14T06:24:22;6.40;99.90
64226;DHT22;50545;56.064;26.178;2023-03-14T06:26:49;6.40;99.90
64226;DHT22;50545;56.064;26.178;2023-03-14T06:29:17;6.40;99.90
64226;DHT22;50545;56.064;26.178;2023-03-14T06:31:45;6.50;99.90
64226;DHT22;50545;56.064;26.178;2023-03-14T06:34:12;6.50;99.90
64226;DHT22;50545;56.064;26.178;2023-03-14T06:36:39;6.50;99.90
64226;DHT22;50545;56.064;26.178;2023-03-14T06:39:06;6.50;99.90
64226;DHT22;50545;56.064;26.178;2023-03-14T06:41:33;6.50;99.90
64226;DHT22;50545;56.064;26.178;2023-03-14T06:44:00;6.40;99.90
64226;DHT22;50545;56.064;26.178;2023-03-14T06:46:28;6.40;99.90
64226;DHT22;50545;56.064;26.178;2023-03-14T06:48:55;6.40;99.90
64226;DHT22;50545;56.064;26.178;2023-03-14T06:51:23;6.40;99.90
64226;DHT22;50545;56.064;26.178;2023-03-14T06:53:50;6.30;99.90
64226;DHT22;50545;56.064;26.178;2023-03-14T06:56:17;6.40;99.90
64226;DHT22;50545;56.064;26.178;2023-03-14T06:58:44;6.40;99.90
64226;DHT22;50545;56.064;26.178;2023-03-14T07:01:28;6.30;99.90
64226;DHT22;50545;56.064;26.178;2023-03-14T07:03:56;6.30;99.90
64226;DHT22;50545;56.064;26.178;2023-03-14T07:06:24;6.30;99.90
64226;DHT22;50545;56.064;26.178;2023-03-14T07:08:52;6.40;99.90
64226;DHT22;50545;56.064;26.178;2023-03-14T07:11:19;6.40;99.90
64226;DHT22;50545;56.064;26.178;2023-03-14T07:13:46;6.40;99.90
64226;DHT22;50545;56.064;26.178;2023-03-14T07:16:14;6.30;99.90
64226;DHT22;50545;56.064;26.178;2023-03-14T07:18:41;6.30;99.90
64226;DHT22;50545;56.064;26.178;2023-03-14T07:21:09;6.30;99.90
64226;DHT22;50545;56.064;26.178;2023-03-14T07:23:36;6.30;99.90
64226;DHT22;50545;56.064;26.178;2023-03-14T07:26:03;6.30;99.90
64226;DHT22;50545;56.064;26.178;2023-03-14T07:28:30;6.30;99.90
64226;DHT22;50545;56.064;26.178;2023-03-14T07:30:57;6.20;99.90
64226;DHT22;50545;56.064;26.178;2023-03-14T07:33:25;6.20;99.90
64226;DHT22;50545;56.064;26.178;2023-03-14T07:35:53;6.30;99.90
64226;DHT22;50545;56.064;26.178;2023-03-14T07:38:20;6.30;99.90
64226;DHT22;50545;56.064;26.178;2023-03-14T07:40:49;6.30;99.90
64226;DHT22;50545;56.064;26.178;2023-03-14T07:43:16;6.30;99.90
64226;DHT22;50545;56.064;26.178;2023-03-14T07:45:46;6.30;99.90
64226;DHT22;50545;56.064;26.178;2023-03-14T07:48:16;6.40;99.90
64226;DHT22;50545;56.064;26.178;2023-03-14T07:50:44;6.40;99.90
64226;DHT22;50545;56.064;26.178;2023-03-14T07:53:14;6.50;99.90
64226;DHT22;50545;56.064;26.178;2023-03-14T07:55:41;6.50;99.90
64226;DHT22;50545;56.064;26.178;2023-03-14T07:58:09;6.50;99.90
64226;DHT22;50545;56.064;26.178;2023-03-14T08:00:36;6.60;99.90
64226;DHT22;50545;56.064;26.178;2023-03-14T08:03:03;6.70;99.90
64226;DHT22;50545;56.064;26.178;2023-03-14T08:05:30;6.70;99.90
64226;DHT22;50545;56.064;26.178;2023-03-14T08:07:57;6.80;99.90
64226;DHT22;50545;56.064;26.178;2023-03-14T08:10:24;6.80;99.90
64226;DHT22;50545;56.064;26.178;2023-03-14T08:12:56;6.80;99.90
64226;DHT22;50545;56.064;26.178;2023-03-14T08:15:24;6.90;99.90
64226;DHT22;50545;56.064;26.178;2023-03-14T08:17:51;6.90;99.90
64226;DHT22;50545;56.064;26.178;2023-03-14T08:20:22;6.90;99.90
64226;DHT22;50545;56.064;26.178;2023-03-14T08:22:49;7.00;99.90
64226;DHT22;50545;56.064;26.178;2023-03-14T08:25:17;7.10;99.90
64226;DHT22;50545;56.064;26.178;2023-03-14T08:27:44;7.20;99.90
64226;DHT22;50545;56.064;26.178;2023-03-14T08:30:13;7.20;99.90
64226;DHT22;50545;56.064;26.178;2023-03-14T08:32:41;7.30;99.90
64226;DHT22;50545;56.064;26.178;2023-03-14T08:35:09;7.40;99.90
64226;DHT22;50545;56.064;26.178;2023-03-14T08:37:37;7.40;99.90
64226;DHT22;50545;56.064;26.178;2023-03-14T08:40:05;7.40;99.90
64226;DHT22;50545;56.064;26.178;2023-03-14T08:42:33;7.40;99.90
64226;DHT22;50545;56.064;26.178;2023-03-14T08:45:01;7.40;99.90
64226;DHT22;50545;56.064;26.178;2023-03-14T08:47:28;7.30;99.90
64226;DHT22;50545;56.064;26.178;2023-03-14T08:49:55;7.20;99.90
64226;DHT22;50545;56.064;26.178;2023-03-14T08:52:23;7.20;99.90
64226;DHT22;50545;56.064;26.178;2023-03-14T08:54:50;7.20;99.90
64226;DHT22;50545;56.064;26.178;2023-03-14T08:57:17;7.20;99.90
64226;DHT22;50545;56.064;26.178;2023-03-14T08:59:45;7.10;99.90
64226;DHT22;50545;56.064;26.178;2023-03-14T09:02:12;7.10;99.90
64226;DHT22;50545;56.064;26.178;2023-03-14T09:04:39;7.00;99.90
64226;DHT22;50545;56.064;26.178;2023-03-14T09:07:06;7.00;99.90
64226;DHT22;50545;56.064;26.178;2023-03-14T09:09:33;7.00;99.90
64226;DHT22;50545;56.064;26.178;2023-03-14T09:12:01;7.00;99.90
64226;DHT22;50545;56.064;26.178;2023-03-14T09:14:28;7.00;99.90
64226;DHT22;50545;56.064;26.178;2023-03-14T09:16:55;7.00;99.90
64226;DHT22;50545;56.064;26.178;2023-03-14T09:19:22;7.00;99.90
64226;DHT22;50545;56.064;26.178;2023-03-14T09:21:50;7.00;99.90
64226;DHT22;50545;56.064;26.178;2023-03-14T09:24:17;7.00;99.90
64226;DHT22;50545;56.064;26.178;2023-03-14T09:26:44;7.00;99.90
64226;DHT22;50545;56.064;26.178;2023-03-14T09:29:11;7.10;99.90
64226;DHT22;50545;56.064;26.178;2023-03-14T09:31:39;7.00;99.90
64226;DHT22;50545;56.064;26.178;2023-03-14T09:34:06;7.10;99.90
64226;DHT22;50545;56.064;26.178;2023-03-14T09:36:33;7.10;99.90
64226;DHT22;50545;56.064;26.178;2023-03-14T09:39:00;7.10;99.90
64226;DHT22;50545;56.064;26.178;2023-03-14T09:41:35;7.10;99.90
64226;DHT22;50545;56.064;26.178;2023-03-14T09:46:47;7.00;99.90
64226;DHT22;50545;56.064;26.178;2023-03-14T09:49:25;7.00;99.90
64226;DHT22;50545;56.064;26.178;2023-03-14T09:51:56;6.90;99.90
64226;DHT22;50545;56.064;26.178;2023-03-14T09:54:34;7.00;99.90
64226;DHT22;50545;56.064;26.178;2023-03-14T09:57:03;7.00;99.90
64226;DHT22;50545;56.064;26.178;2023-03-14T09:59:31;7.00;99.90
64226;DHT22;50545;56.064;26.178;2023-03-14T10:02:02;7.00;99.90
64226;DHT22;50545;56.064;26.178;2023-03-14T10:04:38;6.90;99.90
64226;DHT22;50545;56.064;26.178;2023-03-14T10:07:13;6.90;99.90
64226;DHT22;50545;56.064;26.178;2023-03-14T10:09:44;6.90;99.90
64226;DHT22;50545;56.064;26.178;2023-03-14T10:12:11;6.90;99.90
64226;DHT22;50545;56.064;26.178;2023-03-14T10:14:47;6.90;99.90
64226;DHT22;50545;56.064;26.178;2023-03-14T10:17:15;6.90;99.90
64226;DHT22;50545;56.064;26.178;2023-03-14T10:20:01;6.90;99.90
64226;DHT22;50545;56.064;26.178;2023-03-14T10:22:32;6.90;99.90
64226;DHT22;50545;56.064;26.178;2023-03-14T10:25:04;6.80;99.90
64226;DHT22;50545;56.064;26.178;2023-03-14T10:27:32;6.80;99.90
64226;DHT22;50545;56.064;26.178;2023-03-14T10:30:05;6.80;99.90
64226;DHT22;50545;56.064;26.178;2023-03-14T10:32:38;6.70;99.90
64226;DHT22;50545;56.064;26.178;2023-03-14T10:38:00;6.60;99.90
64226;DHT22;50545;56.064;26.178;2023-03-14T10:40:34;6.50;99.90
64226;DHT22;50545;56.064;26.178;2023-03-14T10:43:06;6.50;99.90
64226;DHT22;50545;56.064;26.178;2023-03-14T10:45:40;6.40;99.90
64226;DHT22;50545;56.064;26.178;2023-03-14T10:48:30;6.30;99.90
64226;DHT22;50545;56.064;26.178;2023-03-14T10:54:02;6.10;99.90
64226;DHT22;50545;56.064;26.178;2023-03-14T10:56:37;6.10;99.90
64226;DHT22;50545;56.064;26.178;2023-03-14T10:59:10;6.10;99.90
64226;DHT22;50545;56.064;26.178;2023-03-14T11:07:42;6.00;99.90
64226;DHT22;50545;56.064;26.178;2023-03-14T11:10:33;5.90;99.90
64226;DHT22;50545;56.064;26.178;2023-03-14T11:13:22;6.00;99.90
64226;DHT22;50545;56.064;26.178;2023-03-14T11:27:14;6.00;99.90
64226;DHT22;50545;56.064;26.178;2023-03-14T11:30:00;6.10;99.90
64226;DHT22;50545;56.064;26.178;2023-03-14T11:35:39;6.20;99.90
64226;DHT22;50545;56.064;26.178;2023-03-14T11:40:52;6.30;99.90
64226;DHT22;50545;56.064;26.178;2023-03-14T11:43:30;6.40;99.90
64226;DHT22;50545;56.064;26.178;2023-03-14T11:46:25;6.40;99.90
64226;DHT22;50545;56.064;26.178;2023-03-14T11:51:28;6.50;99.90
64226;DHT22;50545;56.064;26.178;2023-03-14T11:54:04;6.50;99.90
64226;DHT22;50545;56.064;26.178;2023-03-14T11:56:53;6.50;99.90
64226;DHT22;50545;56.064;26.178;2023-03-14T11:59:29;6.50;99.90
64226;DHT22;50545;56.064;26.178;2023-03-14T12:02:04;6.60;99.90
64226;DHT22;50545;56.064;26.178;2023-03-14T12:07:29;6.40;99.90
64226;DHT22;50545;56.064;26.178;2023-03-14T12:09:57;6.30;99.90
64226;DHT22;50545;56.064;26.178;2023-03-14T12:12:25;6.30;99.90
64226;DHT22;50545;56.064;26.178;2023-03-14T12:14:59;6.30;99.90
64226;DHT22;50545;56.064;26.178;2023-03-14T12:17:39;6.30;99.90
64226;DHT22;50545;56.064;26.178;2023-03-14T12:20:26;6.30;99.90
64226;DHT22;50545;56.064;26.178;2023-03-14T12:23:02;6.40;99.90
64226;DHT22;50545;56.064;26.178;2023-03-14T12:25:32;6.50;99.90
64226;DHT22;50545;56.064;26.178;2023-03-14T12:28:04;6.60;99.90
64226;DHT22;50545;56.064;26.178;2023-03-14T12:30:38;6.70;99.90
64226;DHT22;50545;56.064;26.178;2023-03-14T12:35:47;6.90;99.90
64226;DHT22;50545;56.064;26.178;2023-03-14T12:41:11;6.80;99.90
64226;DHT22;50545;56.064;26.178;2023-03-14T12:43:40;6.90;99.90
64226;DHT22;50545;56.064;26.178;2023-03-14T12:51:43;7.00;99.90
64226;DHT22;50545;56.064;26.178;2023-03-14T12:57:26;7.00;99.90
64226;DHT22;50545;56.064;26.178;2023-03-14T13:00:11;6.80;99.90
64226;DHT22;50545;56.064;26.178;2023-03-14T13:02:44;6.70;99.90
64226;DHT22;50545;56.064;26.178;2023-03-14T13:05:21;6.60;99.90
64226;DHT22;50545;56.064;26.178;2023-03-14T13:10:26;6.50;99.90
64226;DHT22;50545;56.064;26.178;2023-03-14T13:13:11;6.40;99.90
64226;DHT22;50545;56.064;26.178;2023-03-14T13:15:46;6.40;99.90
64226;DHT22;50545;56.064;26.178;2023-03-14T13:21:26;6.60;99.90
64226;DHT22;50545;56.064;26.178;2023-03-14T13:26:43;6.70;99.90
64226;DHT22;50545;56.064;26.178;2023-03-14T13:29:31;6.80;99.90
64226;DHT22;50545;56.064;26.178;2023-03-14T13:32:00;6.90;99.90
64226;DHT22;50545;56.064;26.178;2023-03-14T13:34:33;6.90;99.90
64226;DHT22;50545;56.064;26.178;2023-03-14T13:37:01;6.90;99.90
64226;DHT22;50545;56.064;26.178;2023-03-14T13:39:28;6.90;99.90
64226;DHT22;50545;56.064;26.178;2023-03-14T13:42:00;6.90;99.90
64226;DHT22;50545;56.064;26.178;2023-03-14T13:44:36;7.00;99.90
64226;DHT22;50545;56.064;26.178;2023-03-14T13:47:09;6.90;99.90
64226;DHT22;50545;56.064;26.178;2023-03-14T13:49:38;6.80;99.90
64226;DHT22;50545;56.064;26.178;2023-03-14T13:52:28;6.80;99.90
64226;DHT22;50545;56.064;26.178;2023-03-14T13:54:57;6.80;99.90
64226;DHT22;50545;56.064;26.178;2023-03-14T13:57:26;6.80;99.90
64226;DHT22;50545;56.064;26.178;2023-03-14T13:59:59;6.80;99.90
64226;DHT22;50545;56.064;26.178;2023-03-14T14:02:28;6.70;99.90
64226;DHT22;50545;56.064;26.178;2023-03-14T14:04:56;6.60;99.90
64226;DHT22;50545;56.064;26.178;2023-03-14T14:07:24;6.50;99.90
64226;DHT22;50545;56.064;26.178;2023-03-14T14:09:52;6.50;99.90
64226;DHT22;50545;56.064;26.178;2023-03-14T14:12:25;6.50;99.90
64226;DHT22;50545;56.064;26.178;2023-03-14T14:17:33;6.50;99.90
64226;DHT22;50545;56.064;26.178;2023-03-14T14:20:04;6.50;99.90
64226;DHT22;50545;56.064;26.178;2023-03-14T14:22:33;6.50;99.90
64226;DHT22;50545;56.064;26.178;2023-03-14T14:25:01;6.40;99.90
64226;DHT22;50545;56.064;26.178;2023-03-14T14:27:37;6.30;99.90
64226;DHT22;50545;56.064;26.178;2023-03-14T14:30:36;6.30;99.90
64226;DHT22;50545;56.064;26.178;2023-03-14T14:33:18;6.30;99.90
64226;DHT22;50545;56.064;26.178;2023-03-14T14:35:58;6.20;99.90
64226;DHT22;50545;56.064;26.178;2023-03-14T14:38:27;6.20;99.90
64226;DHT22;50545;56.064;26.178;2023-03-14T14:41:01;6.10;99.90
64226;DHT22;50545;56.064;26.178;2023-03-14T14:43:35;6.10;99.90
64226;DHT22;50545;56.064;26.178;2023-03-14T14:46:06;6.00;99.90
64226;DHT22;50545;56.064;26.178;2023-03-14T14:48:37;5.90;99.90
64226;DHT22;50545;56.064;26.178;2023-03-14T14:51:06;5.90;99.90
64226;DHT22;50545;56.064;26.178;2023-03-14T14:53:42;5.90;99.90
64226;DHT22;50545;56.064;26.178;2023-03-14T14:56:18;5.90;99.90
64226;DHT22;50545;56.064;26.178;2023-03-14T14:58:47;5.80;99.90
64226;DHT22;50545;56.064;26.178;2023-03-14T15:01:18;5.80;99.90
64226;DHT22;50545;56.064;26.178;2023-03-14T15:03:51;5.80;99.90
64226;DHT22;50545;56.064;26.178;2023-03-14T15:06:27;5.80;99.90
64226;DHT22;50545;56.064;26.178;2023-03-14T15:08:55;5.80;99.90
64226;DHT22;50545;56.064;26.178;2023-03-14T15:11:24;5.80;99.90
64226;DHT22;50545;56.064;26.178;2023-03-14T15:13:52;5.80;99.90
64226;DHT22;50545;56.064;26.178;2023-03-14T15:16:23;5.80;99.90
64226;DHT22;50545;56.064;26.178;2023-03-14T15:18:56;5.80;99.90
64226;DHT22;50545;56.064;26.178;2023-03-14T15:21:24;5.90;99.90
64226;DHT22;50545;56.064;26.178;2023-03-14T15:23:52;5.90;99.90
64226;DHT22;50545;56.064;26.178;2023-03-14T15:26:25;5.90;99.90
64226;DHT22;50545;56.064;26.178;2023-03-14T15:28:53;6.00;99.90
64226;DHT22;50545;56.064;26.178;2023-03-14T15:31:20;6.00;99.90
64226;DHT22;50545;56.064;26.178;2023-03-14T15:33:50;5.90;99.90
64226;DHT22;50545;56.064;26.178;2023-03-14T15:38:53;5.90;99.90
64226;DHT22;50545;56.064;26.178;2023-03-14T15:41:21;5.90;99.90
64226;DHT22;50545;56.064;26.178;2023-03-14T15:43:48;5.90;99.90
64226;DHT22;50545;56.064;26.178;2023-03-14T15:46:16;5.80;99.90
64226;DHT22;50545;56.064;26.178;2023-03-14T15:48:45;5.80;99.90
64226;DHT22;50545;56.064;26.178;2023-03-14T15:51:13;5.80;99.90
64226;DHT22;50545;56.064;26.178;2023-03-14T15:53:40;5.80;99.90
64226;DHT22;50545;56.064;26.178;2023-03-14T15:56:15;5.70;99.90
64226;DHT22;50545;56.064;26.178;2023-03-14T15:58:43;5.70;99.90
64226;DHT22;50545;56.064;26.178;2023-03-14T16:01:14;5.60;99.90
64226;DHT22;50545;56.064;26.178;2023-03-14T16:03:43;5.70;99.90
64226;DHT22;50545;56.064;26.178;2023-03-14T16:06:12;5.70;99.90
64226;DHT22;50545;56.064;26.178;2023-03-14T16:08:41;5.70;99.90
64226;DHT22;50545;56.064;26.178;2023-03-14T16:11:12;5.70;99.90
64226;DHT22;50545;56.064;26.178;2023-03-14T16:13:41;5.70;99.90
64226;DHT22;50545;56.064;26.178;2023-03-14T16:16:08;5.70;99.90
64226;DHT22;50545;56.064;26.178;2023-03-14T16:18:38;5.60;99.90
64226;DHT22;50545;56.064;26.178;2023-03-14T16:21:13;5.70;99.90
64226;DHT22;50545;56.064;26.178;2023-03-14T16:23:40;5.70;99.90
64226;DHT22;50545;56.064;26.178;2023-03-14T16:26:10;5.70;99.90
64226;DHT22;50545;56.064;26.178;2023-03-14T16:28:38;5.80;99.90
64226;DHT22;50545;56.064;26.178;2023-03-14T16:31:08;5.80;99.90
64226;DHT22;50545;56.064;26.178;2023-03-14T16:33:37;5.80;99.90
64226;DHT22;50545;56.064;26.178;2023-03-14T16:36:06;5.80;99.90
64226;DHT22;50545;56.064;26.178;2023-03-14T16:38:35;5.80;99.90
64226;DHT22;50545;56.064;26.178;2023-03-14T16:41:09;5.80;99.90
64226;DHT22;50545;56.064;26.178;2023-03-14T16:43:36;5.80;99.90
64226;DHT22;50545;56.064;26.178;2023-03-14T16:46:05;5.70;99.90
64226;DHT22;50545;56.064;26.178;2023-03-14T16:48:33;5.70;99.90
64226;DHT22;50545;56.064;26.178;2023-03-14T16:51:00;5.60;99.90
64226;DHT22;50545;56.064;26.178;2023-03-14T16:53:27;5.60;99.90
64226;DHT22;50545;56.064;26.178;2023-03-14T16:55:58;5.60;99.90
64226;DHT22;50545;56.064;26.178;2023-03-14T16:58:26;5.50;99.90
64226;DHT22;50545;56.064;26.178;2023-03-14T17:00:53;5.50;99.90
64226;DHT22;50545;56.064;26.178;2023-03-14T17:03:20;5.50;99.90
64226;DHT22;50545;56.064;26.178;2023-03-14T17:05:49;5.50;99.90
64226;DHT22;50545;56.064;26.178;2023-03-14T17:08:18;5.50;99.90
64226;DHT22;50545;56.064;26.178;2023-03-14T17:10:46;5.50;99.90